Time;durP1;ratioP1;P1;durP2;ratioP2;P2;SDS_P1;SDS_P2;PMS_P1;PMS_P2;Temp;Humidity;BMP_temperature;BMP_pressure;BME280_temperature;BME280_humidity;BME280_pressure;Samples;Min_cycle;Max_cycle;Signal;HPM_P1;HPM_P2
2022/12/11 00:00:49;;;;;;;;;17.00;14.50;;;;;0.77;69.77;99872.16;5055069;28;45579;-75
2022/12/11 00:03:18;;;;;;;;;13.75;12.75;;;;;0.77;69.90;99872.16;5053804;28;45563;-72
2022/12/11 00:05:44;;;;;;;;;17.75;17.00;;;;;0.74;70.20;99860.03;5055376;28;45250;-80
2022/12/11 00:08:11;;;;;;;;;19.00;17.00;;;;;0.79;70.28;99862.84;5055199;28;45337;-79
2022/12/11 00:10:37;;;;;;;;;22.50;20.00;;;;;0.83;70.66;99853.63;5054819;28;45349;-70
2022/12/11 00:13:03;;;;;;;;;20.00;15.75;;;;;0.85;69.71;99852.91;5056588;28;45417;-80
2022/12/11 00:15:29;;;;;;;;;23.25;18.25;;;;;0.85;70.28;99849.47;5054956;28;45598;-80
2022/12/11 00:17:54;;;;;;;;;26.25;20.50;;;;;0.85;69.72;99846.91;5056044;28;45447;-67
2022/12/11 00:20:20;;;;;;;;;24.25;21.75;;;;;0.85;70.15;99845.19;5057417;28;45429;-78
2022/12/11 00:22:46;;;;;;;;;18.25;17.00;;;;;0.87;70.08;99835.00;5054565;28;45885;-78
2022/12/11 00:25:11;;;;;;;;;26.50;25.25;;;;;0.78;69.46;99819.97;5052456;28;45767;-78
2022/12/11 00:27:37;;;;;;;;;52.25;45.00;;;;;0.84;69.67;99819.44;5056155;28;45512;-79
2022/12/11 00:30:04;;;;;;;;;44.75;39.50;;;;;0.78;70.26;99828.53;5055347;28;45528;-79
2022/12/11 00:32:30;;;;;;;;;26.25;24.75;;;;;0.81;69.97;99822.69;5056130;28;46034;-68
2022/12/11 00:34:56;;;;;;;;;21.50;18.00;;;;;0.84;70.06;99820.31;5053708;28;46106;-74
2022/12/11 00:37:22;;;;;;;;;22.25;21.00;;;;;0.86;69.66;99810.13;5055850;28;45579;-69
2022/12/11 00:39:47;;;;;;;;;21.00;19.50;;;;;0.84;70.49;99796.28;5056804;28;45506;-72
2022/12/11 00:42:13;;;;;;;;;23.75;21.25;;;;;0.78;70.41;99791.69;5054853;28;45966;-68
2022/12/11 00:44:38;;;;;;;;;23.75;22.25;;;;;0.84;70.15;99796.28;5056032;28;45459;-69
2022/12/11 00:47:04;;;;;;;;;26.00;21.75;;;;;0.84;69.86;99781.72;5052936;28;45377;-68
2022/12/11 00:49:29;;;;;;;;;20.00;17.50;;;;;0.79;69.82;99772.88;5055931;28;45467;-68
2022/12/11 00:51:55;;;;;;;;;21.75;18.50;;;;;0.84;70.20;99781.72;5055327;28;45683;-69
2022/12/11 00:54:20;;;;;;;;;17.25;12.75;;;;;0.84;70.36;99758.59;5055259;28;45913;-69
2022/12/11 00:56:46;;;;;;;;;12.25;12.25;;;;;0.83;70.38;99761.94;5055966;28;45543;-67
2022/12/11 00:59:12;;;;;;;;;10.00;8.00;;;;;0.72;70.68;99751.06;5056046;28;45270;-68
2022/12/11 01:01:37;;;;;;;;;3.75;3.50;;;;;0.71;70.33;99746.72;5055826;28;45328;-68
2022/12/11 01:04:03;;;;;;;;;5.50;4.25;;;;;0.73;70.73;99754.53;5054731;28;45426;-68
2022/12/11 01:06:29;;;;;;;;;4.50;4.00;;;;;0.67;70.46;99739.63;5053637;28;45416;-70
2022/12/11 01:11:41;;;;;;;;;8.00;8.00;;;;;0.69;70.75;99730.31;5053058;28;45978;-68
2022/12/11 01:14:07;;;;;;;;;10.00;8.00;;;;;0.76;71.11;99727.31;5054872;28;45440;-67
2022/12/11 01:16:33;;;;;;;;;14.00;11.75;;;;;0.78;70.78;99723.13;5055433;28;45456;-68
2022/12/11 01:18:59;;;;;;;;;16.50;15.25;;;;;0.77;70.78;99716.22;5055184;28;45348;-67
2022/12/11 01:21:24;;;;;;;;;17.00;16.25;;;;;0.67;70.69;99687.34;5055326;28;46162;-68
2022/12/11 01:23:50;;;;;;;;;11.00;10.25;;;;;0.80;70.77;99694.94;5055006;28;45456;-68
2022/12/11 01:26:16;;;;;;;;;11.50;10.75;;;;;0.81;70.89;99696.69;5055282;28;45965;-68
2022/12/11 01:28:42;;;;;;;;;10.25;9.00;;;;;0.84;70.58;99689.16;5055121;28;45342;-68
2022/12/11 01:31:09;;;;;;;;;10.75;9.25;;;;;0.86;71.16;99672.13;5052420;28;46192;-70
2022/12/11 01:33:35;;;;;;;;;7.00;5.00;;;;;0.68;70.73;99638.59;5054730;28;45484;-68
2022/12/11 01:36:00;;;;;;;;;10.00;8.00;;;;;0.90;70.86;99668.06;5054547;28;45465;-68
2022/12/11 01:38:26;;;;;;;;;9.25;8.00;;;;;0.91;70.77;99662.97;5053613;28;45431;-68
2022/12/11 01:40:51;;;;;;;;;10.50;8.25;;;;;0.80;71.34;99664.09;5049933;28;45547;-68
2022/12/11 01:43:17;;;;;;;;;4.50;4.50;;;;;0.68;72.14;99666.00;5054969;28;45460;-68
2022/12/11 01:45:45;;;;;;;;;4.25;2.50;;;;;0.58;72.67;99670.63;5054163;28;45469;-68
2022/12/11 01:48:15;;;;;;;;;1.00;1.00;;;;;0.44;72.20;99651.00;5054026;28;45598;-68
2022/12/11 01:50:48;;;;;;;;;4.00;2.00;;;;;0.51;72.01;99676.22;5054915;28;45694;-68
2022/12/11 01:53:20;;;;;;;;;5.00;4.00;;;;;0.55;71.81;99677.28;5050532;28;45555;-74
2022/12/11 01:55:48;;;;;;;;;7.00;7.00;;;;;0.55;71.76;99683.28;5054117;28;45755;-68
2022/12/11 01:58:15;;;;;;;;;6.50;5.75;;;;;0.57;72.18;99693.66;5050448;28;45291;-67
2022/12/11 02:00:41;;;;;;;;;7.00;5.50;;;;;0.59;71.71;99690.38;5051460;28;45391;-67
2022/12/11 02:03:07;;;;;;;;;10.00;7.00;;;;;0.61;71.66;99694.72;5055161;28;45305;-68
2022/12/11 02:05:33;;;;;;;;;8.00;8.00;;;;;0.54;71.97;99688.38;5055586;28;45346;-68
2022/12/11 02:08:02;;;;;;;;;12.25;8.00;;;;;0.55;71.48;99687.56;5055684;28;45384;-70
2022/12/11 02:10:46;;;;;;;;;10.00;8.00;;;;;0.56;71.46;99686.78;5055048;28;45428;-68
2022/12/11 02:13:20;;;;;;;;;4.00;4.00;;;;;0.21;71.08;99620.56;5054902;28;45467;-68
2022/12/11 02:15:54;;;;;;;;;2.00;2.00;;;;;0.56;71.28;99679.94;5053140;28;45666;-67
2022/12/11 02:18:35;;;;;;;;;4.00;1.00;;;;;0.52;71.15;99671.97;5052014;28;45287;-67
2022/12/11 02:21:14;;;;;;;;;4.00;2.00;;;;;0.54;71.83;99675.53;5055875;28;45373;-79
2022/12/11 02:23:53;;;;;;;;;4.00;4.00;;;;;0.52;71.59;99680.56;5041758;28;45437;-68
2022/12/11 02:26:38;;;;;;;;;3.50;2.00;;;;;0.51;71.64;99671.06;5055287;28;45492;-68
2022/12/11 02:29:29;;;;;;;;;4.25;2.00;;;;;-0.34;71.80;99516.50;5052865;28;45527;-68
2022/12/11 02:32:13;;;;;;;;;4.00;4.00;;;;;0.39;73.06;99661.00;5047103;28;46167;-68
2022/12/11 02:34:45;;;;;;;;;4.00;2.00;;;;;0.40;72.66;99654.19;5051525;28;45487;-67
2022/12/11 02:37:16;;;;;;;;;0.50;0.50;;;;;0.42;72.08;99650.03;5056336;28;45426;-68
2022/12/11 02:39:44;;;;;;;;;1.00;1.00;;;;;0.44;71.75;99651.00;5055048;28;45604;-78
2022/12/11 02:42:11;;;;;;;;;0.00;0.00;;;;;0.48;71.62;99640.09;5040614;28;45450;-68
2022/12/11 02:44:39;;;;;;;;;2.00;1.00;;;;;0.27;71.55;99601.22;5047097;28;45377;-68
2022/12/11 02:47:09;;;;;;;;;1.00;0.00;;;;;0.55;71.62;99634.47;5036680;28;45349;-68
2022/12/11 02:49:35;;;;;;;;;1.00;1.00;;;;;0.33;71.92;99586.16;5036509;28;45251;-68
2022/12/11 02:52:04;;;;;;;;;4.25;3.00;;;;;0.50;72.24;99605.06;5036464;28;45387;-68
2022/12/11 02:54:34;;;;;;;;;7.00;5.00;;;;;0.63;71.76;99627.16;5035844;28;45493;-68
2022/12/11 02:57:10;;;;;;;;;6.50;5.00;;;;;0.51;72.10;99611.09;5051043;28;45551;-68
2022/12/11 02:59:40;;;;;;;;;7.50;5.00;;;;;0.52;72.20;99607.75;5045305;28;45479;-68
2022/12/11 03:02:06;;;;;;;;;9.25;8.00;;;;;0.62;71.95;99622.84;5055533;28;46147;-68
2022/12/11 03:04:35;;;;;;;;;7.75;7.75;;;;;0.63;72.00;99616.03;5039598;28;45528;-68
2022/12/11 03:07:14;;;;;;;;;10.75;10.00;;;;;0.68;71.72;99612.03;5055621;28;45418;-69
2022/12/11 03:09:42;;;;;;;;;11.00;10.25;;;;;0.70;72.08;99607.84;5044719;28;45507;-69
2022/12/11 03:12:10;;;;;;;;;22.00;21.50;;;;;0.74;71.72;99604.63;5055468;28;46073;-70
2022/12/11 03:14:38;;;;;;;;;17.00;14.25;;;;;0.76;71.92;99614.19;5058942;28;45569;-69
2022/12/11 03:17:06;;;;;;;;;8.50;8.00;;;;;0.77;71.65;99609.94;5059164;28;45555;-80
2022/12/11 03:20:09;;;;;;;;;6.50;5.50;;;;;0.79;71.40;99598.91;5059322;28;45629;-69
2022/12/11 03:22:44;;;;;;;;;5.25;4.50;;;;;0.81;71.30;99592.97;5052567;28;45687;-68
2022/12/11 03:25:24;;;;;;;;;4.00;2.50;;;;;0.82;71.51;99594.75;5059302;28;45369;-68
2022/12/11 03:27:58;;;;;;;;;5.00;5.00;;;;;0.81;71.75;99585.28;5058250;28;45578;-79
2022/12/11 03:30:29;;;;;;;;;4.00;4.00;;;;;0.81;71.73;99590.41;5040082;28;45373;-68
2022/12/11 03:33:03;;;;;;;;;4.00;2.00;;;;;0.82;71.58;99582.78;5048424;28;46102;-79
2022/12/11 03:35:47;;;;;;;;;4.75;3.50;;;;;0.86;71.66;99582.16;5058820;28;45542;-69
2022/12/11 03:38:33;;;;;;;;;5.00;4.50;;;;;0.88;71.37;99567.69;5039221;28;45778;-68
2022/12/11 03:41:03;;;;;;;;;4.75;4.75;;;;;0.90;71.42;99566.06;5050827;28;45555;-69
2022/12/11 03:43:30;;;;;;;;;4.25;4.25;;;;;0.91;71.31;99557.53;5042432;28;45507;-68
2022/12/11 03:45:58;;;;;;;;;4.00;4.00;;;;;0.72;71.06;99514.56;5056233;28;45508;-68
2022/12/11 03:48:29;;;;;;;;;5.00;3.50;;;;;0.96;71.42;99534.66;5050256;28;45487;-68
2022/12/11 03:50:57;;;;;;;;;5.00;4.00;;;;;1.02;71.05;99539.25;5053128;28;45370;-69
2022/12/11 03:53:25;;;;;;;;;8.25;5.50;;;;;1.06;71.42;99541.16;5058320;28;46172;-68
2022/12/11 03:55:55;;;;;;;;;7.75;4.25;;;;;1.08;71.59;99539.56;5052662;28;45350;-69
2022/12/11 03:58:20;;;;;;;;;4.75;4.75;;;;;1.11;71.01;99534.56;5049100;28;45470;-68
2022/12/11 04:00:46;;;;;;;;;8.75;6.50;;;;;1.12;70.96;99526.03;5057985;28;45532;-68
2022/12/11 04:03:11;;;;;;;;;8.25;7.50;;;;;1.12;70.90;99526.03;5057103;28;45528;-69
2022/12/11 04:05:38;;;;;;;;;2.50;2.50;;;;;0.78;70.47;99467.75;5058410;28;45207;-68
2022/12/11 04:08:04;;;;;;;;;3.50;3.00;;;;;1.11;70.50;99525.13;5058476;28;45357;-68
2022/12/11 04:10:29;;;;;;;;;2.00;2.00;;;;;1.05;70.97;99508.53;5058428;28;45543;-68
2022/12/11 04:12:55;;;;;;;;;3.00;3.00;;;;;1.02;70.64;99495.53;5056412;28;45426;-80
2022/12/11 04:15:21;;;;;;;;;1.00;1.00;;;;;1.17;70.54;99517.75;5044492;28;45538;-80
2022/12/11 04:26:10;;;;;;;;;1.25;1.25;;;;;1.14;70.51;99491.88;5051343;28;45503;-73
2022/12/11 04:28:36;;;;;;;;;1.00;1.00;;;;;1.17;70.78;99488.56;5040600;28;45674;-68
2022/12/11 04:31:01;;;;;;;;;2.50;1.50;;;;;1.18;70.35;99480.94;5057782;28;45990;-68
2022/12/11 04:33:28;;;;;;;;;0.25;0.25;;;;;0.90;70.48;99424.66;5057838;28;46060;-79
2022/12/11 04:35:56;;;;;;;;;0.00;0.00;;;;;1.26;70.67;99483.88;5057794;28;45476;-79
2022/12/11 04:38:21;;;;;;;;;1.00;1.00;;;;;1.23;70.84;99478.56;5057435;28;45385;-77
2022/12/11 04:40:47;;;;;;;;;0.00;0.00;;;;;1.24;70.33;99475.22;5058100;28;45354;-68
2022/12/11 04:43:12;;;;;;;;;1.25;0.00;;;;;1.26;70.56;99472.72;5056395;28;45539;-68
2022/12/11 04:45:38;;;;;;;;;2.00;1.00;;;;;1.28;70.55;99468.53;5057879;28;45421;-69
2022/12/11 04:48:03;;;;;;;;;1.00;1.00;;;;;1.24;70.44;99443.47;5057357;28;45576;-68
2022/12/11 04:50:29;;;;;;;;;2.00;1.00;;;;;1.31;70.81;99446.41;5051854;28;45421;-69
2022/12/11 04:52:55;;;;;;;;;1.50;1.00;;;;;1.37;70.34;99454.44;5043267;28;45979;-74
2022/12/11 04:55:20;;;;;;;;;1.00;1.00;;;;;1.39;70.92;99436.47;5057793;28;45452;-69
2022/12/11 04:57:46;;;;;;;;;1.00;0.00;;;;;1.41;70.28;99426.25;5057675;28;45590;-68
2022/12/11 05:00:12;;;;;;;;;0.00;0.00;;;;;1.43;69.97;99419.50;5058080;28;45496;-69
2022/12/11 05:02:40;;;;;;;;;0.00;0.00;;;;;1.42;69.30;99415.16;5043771;28;45404;-68
2022/12/11 05:05:11;;;;;;;;;1.00;0.50;;;;;1.24;69.50;99380.03;5046169;28;45470;-68
2022/12/11 05:07:37;;;;;;;;;2.00;1.00;;;;;1.47;70.10;99416.25;5057411;28;45475;-69
2022/12/11 05:10:04;;;;;;;;;3.00;2.00;;;;;1.49;69.97;99417.22;5055239;28;45480;-69
2022/12/11 05:12:30;;;;;;;;;1.00;1.00;;;;;1.50;70.24;99416.41;5043364;28;46125;-68
2022/12/11 05:14:56;;;;;;;;;1.00;1.00;;;;;1.49;70.14;99399.19;5048711;28;45576;-69
2022/12/11 05:17:21;;;;;;;;;1.00;1.00;;;;;1.31;70.42;99382.09;5057215;28;45528;-81
2022/12/11 05:19:50;;;;;;;;;1.25;0.50;;;;;1.46;70.20;99392.22;5056787;28;45280;-68
2022/12/11 05:22:16;;;;;;;;;2.00;2.00;;;;;1.54;70.03;99400.31;5056759;28;45530;-68
2022/12/11 05:24:42;;;;;;;;;1.00;1.00;;;;;1.57;70.25;99403.00;5057077;28;45531;-68
2022/12/11 05:27:08;;;;;;;;;5.00;5.00;;;;;1.60;70.35;99410.88;5056034;28;45361;-69
2022/12/11 05:29:33;;;;;;;;;2.00;2.00;;;;;1.62;70.17;99404.13;5057261;28;45382;-69
2022/12/11 05:31:59;;;;;;;;;2.00;2.00;;;;;1.62;70.11;99398.97;5057050;28;46071;-69
2022/12/11 05:34:24;;;;;;;;;1.00;1.00;;;;;1.62;69.11;99396.41;5055815;28;45863;-69
2022/12/11 05:36:50;;;;;;;;;1.00;1.00;;;;;1.62;69.27;99387.81;5056607;28;45590;-68
2022/12/11 05:39:16;;;;;;;;;2.00;1.00;;;;;1.51;69.89;99358.97;5057291;28;45442;-68
2022/12/11 05:41:41;;;;;;;;;1.50;1.00;;;;;1.61;69.55;99366.31;5056882;28;46014;-68
2022/12/11 05:44:09;;;;;;;;;0.00;0.00;;;;;1.62;69.35;99354.34;5056311;28;45393;-68
2022/12/11 05:46:35;;;;;;;;;4.00;1.00;;;;;1.61;68.97;99344.84;5056153;28;45634;-74
2022/12/11 05:49:01;;;;;;;;;1.00;1.00;;;;;1.62;69.13;99338.91;5041845;28;45454;-68
2022/12/11 05:51:28;;;;;;;;;0.50;0.50;;;;;1.64;69.08;99330.41;5048774;28;46177;-79
2022/12/11 05:53:55;;;;;;;;;1.25;1.00;;;;;1.61;69.03;99316.53;5049340;28;45405;-80
2022/12/11 05:56:25;;;;;;;;;1.00;1.00;;;;;1.73;69.66;99327.38;5040178;28;45421;-79
2022/12/11 05:58:51;;;;;;;;;0.50;0.50;;;;;1.76;69.42;99323.25;5051852;28;45821;-68
2022/12/11 06:01:29;;;;;;;;;1.00;1.00;;;;;1.78;69.99;99328.47;5046072;28;46215;-68
2022/12/11 06:03:56;;;;;;;;;1.00;1.00;;;;;1.79;69.92;99325.06;5041630;28;46052;-68
2022/12/11 06:06:23;;;;;;;;;0.00;0.00;;;;;1.77;69.89;99330.19;5039814;28;45565;-68
2022/12/11 06:08:50;;;;;;;;;0.50;0.50;;;;;1.81;68.80;99328.63;5049978;28;45329;-68
2022/12/11 06:11:16;;;;;;;;;0.25;0.00;;;;;1.56;68.39;99290.59;5047474;28;46066;-68
2022/12/11 06:13:41;;;;;;;;;0.75;0.75;;;;;1.84;68.57;99331.31;5053169;28;45646;-71
2022/12/11 06:16:08;;;;;;;;;1.25;1.00;;;;;1.88;68.38;99324.63;5056192;28;45432;-68
2022/12/11 06:18:36;;;;;;;;;1.00;1.00;;;;;1.92;68.41;99322.25;5057282;28;45603;-68
2022/12/11 06:21:17;;;;;;;;;0.50;0.50;;;;;1.94;68.55;99312.88;5056853;28;45408;-79
2022/12/11 06:23:44;;;;;;;;;2.00;2.00;;;;;2.01;68.97;99308.91;5056030;28;45317;-68
2022/12/11 06:26:10;;;;;;;;;1.00;1.00;;;;;1.65;69.54;99252.41;5055826;28;45546;-79
2022/12/11 06:28:36;;;;;;;;;1.00;1.00;;;;;1.90;69.43;99304.97;5056914;28;45543;-80
2022/12/11 06:31:02;;;;;;;;;0.00;0.00;;;;;1.95;68.37;99300.88;5056809;28;45447;-80
2022/12/11 06:33:29;;;;;;;;;2.00;1.00;;;;;1.86;68.51;99282.47;5039964;28;45696;-80
2022/12/11 06:35:55;;;;;;;;;0.00;0.00;;;;;2.02;68.11;99307.22;5056371;28;45329;-80
2022/12/11 06:38:21;;;;;;;;;0.00;0.00;;;;;2.03;67.47;99302.13;5046934;28;45560;-68
2022/12/11 06:40:54;;;;;;;;;0.00;0.00;;;;;2.08;66.91;99299.75;5050235;28;46060;-68
2022/12/11 06:43:20;;;;;;;;;0.00;0.00;;;;;2.09;67.60;99292.09;5056457;28;45479;-68
2022/12/11 06:45:45;;;;;;;;;0.00;0.00;;;;;2.12;67.95;99304.22;5057789;28;45480;-68
2022/12/11 06:48:11;;;;;;;;;0.00;0.00;;;;;2.15;67.75;99306.94;5059968;28;45357;-68
2022/12/11 06:50:37;;;;;;;;;4.25;2.00;;;;;2.17;67.94;99295.88;5059193;28;46088;-70
2022/12/11 06:53:03;;;;;;;;;1.75;1.50;;;;;2.23;67.66;99295.25;5059865;28;45480;-68
2022/12/11 06:55:29;;;;;;;;;4.00;2.50;;;;;2.06;68.42;99261.03;5059457;28;45340;-72
2022/12/11 06:57:54;;;;;;;;;2.50;2.00;;;;;2.27;68.35;99292.00;5047344;28;45230;-81
2022/12/11 07:00:20;;;;;;;;;4.00;4.00;;;;;2.31;68.55;99293.88;5051677;28;46394;-80
2022/12/11 07:02:46;;;;;;;;;7.00;6.00;;;;;2.34;68.82;99280.25;5059478;28;45418;-68
2022/12/11 07:05:12;;;;;;;;;4.00;3.50;;;;;2.19;68.86;99252.16;5050737;28;46273;-68
2022/12/11 07:07:37;;;;;;;;;1.00;1.00;;;;;2.40;67.83;99275.34;5052376;28;45510;-68
2022/12/11 07:10:04;;;;;;;;;0.50;0.50;;;;;2.24;66.74;99257.47;5042991;28;45472;-78
2022/12/11 07:12:29;;;;;;;;;1.25;1.00;;;;;2.23;66.84;99248.88;5055247;28;45562;-68
2022/12/11 07:14:55;;;;;;;;;2.00;2.00;;;;;2.50;66.46;99274.03;5057085;28;45535;-68
2022/12/11 07:17:20;;;;;;;;;1.00;1.00;;;;;2.54;66.53;99281.06;5058567;28;45533;-68
2022/12/11 07:19:46;;;;;;;;;1.00;1.00;;;;;2.54;66.56;99271.63;5057411;28;46216;-69
2022/12/11 07:22:11;;;;;;;;;0.00;0.00;;;;;2.58;65.52;99267.50;5058076;28;45498;-68
2022/12/11 07:24:37;;;;;;;;;1.25;1.25;;;;;2.65;66.43;99264.38;5058322;28;45417;-68
2022/12/11 07:27:03;;;;;;;;;0.00;0.00;;;;;2.68;64.87;99274.78;5057992;28;45403;-68
2022/12/11 07:29:29;;;;;;;;;1.00;1.00;;;;;2.71;65.47;99276.63;5058419;28;45469;-68
2022/12/11 07:31:54;;;;;;;;;1.00;1.00;;;;;2.76;66.00;99282.84;5057927;28;45413;-79
2022/12/11 07:34:20;;;;;;;;;2.00;2.00;;;;;2.78;66.66;99271.75;5058089;28;45228;-80
2022/12/11 07:36:46;;;;;;;;;4.00;2.00;;;;;2.82;66.97;99267.59;5058448;28;45397;-68
2022/12/11 07:39:11;;;;;;;;;2.00;2.00;;;;;2.72;67.31;99253.47;5055152;28;45422;-68
2022/12/11 07:41:38;;;;;;;;;5.00;5.00;;;;;2.87;67.27;99280.72;5058288;28;45168;-79
2022/12/11 07:44:04;;;;;;;;;4.00;2.00;;;;;2.91;67.37;99272.28;5056803;28;45294;-76
2022/12/11 07:46:32;;;;;;;;;4.00;4.00;;;;;2.93;67.33;99266.34;5056405;28;45507;-68
2022/12/11 07:48:59;;;;;;;;;1.00;1.00;;;;;2.98;66.47;99274.25;5055988;28;45334;-68
2022/12/11 07:51:28;;;;;;;;;2.00;1.00;;;;;3.03;66.55;99283.06;5054871;28;45361;-70
2022/12/11 07:53:59;;;;;;;;;5.75;5.75;;;;;3.06;66.83;99292.63;5051237;28;45441;-69
2022/12/11 07:56:25;;;;;;;;;7.50;6.00;;;;;3.10;66.92;99295.38;5046585;28;45455;-68
2022/12/11 07:58:51;;;;;;;;;18.25;17.25;;;;;3.14;66.89;99299.88;5054136;28;46176;-68
2022/12/11 08:01:21;;;;;;;;;20.75;16.50;;;;;3.16;67.41;99302.50;5056117;28;45748;-78
2022/12/11 08:03:47;;;;;;;;;11.25;11.25;;;;;3.22;67.07;99289.81;5054254;28;45701;-68
2022/12/11 08:06:12;;;;;;;;;13.00;12.00;;;;;3.26;66.64;99291.69;5054050;28;45415;-67
2022/12/11 08:08:39;;;;;;;;;12.00;10.00;;;;;3.31;67.01;99287.59;5057825;28;46254;-74
2022/12/11 08:11:07;;;;;;;;;14.50;11.50;;;;;3.36;66.38;99296.41;5058073;28;45638;-68
2022/12/11 08:13:33;;;;;;;;;12.25;12.00;;;;;3.23;66.38;99263.22;5051769;28;45523;-74
2022/12/11 08:16:02;;;;;;;;;11.50;9.25;;;;;3.49;65.75;99296.88;5038559;28;45449;-73
2022/12/11 08:18:29;;;;;;;;;32.75;27.75;;;;;3.51;65.45;99285.78;5051601;28;46070;-67
2022/12/11 08:20:54;;;;;;;;;12.25;11.00;;;;;3.56;65.88;99286.84;5052468;28;45262;-68
2022/12/11 08:23:20;;;;;;;;;16.50;14.25;;;;;3.48;65.32;99269.28;5054399;28;45410;-67
2022/12/11 08:25:45;;;;;;;;;9.00;9.00;;;;;3.69;65.70;99295.91;5057279;28;45462;-69
2022/12/11 08:28:11;;;;;;;;;9.00;5.50;;;;;3.76;64.34;99285.00;5055630;28;45544;-67
2022/12/11 08:30:40;;;;;;;;;8.00;8.00;;;;;3.84;64.34;99287.88;5056159;28;45529;-68
2022/12/11 08:33:05;;;;;;;;;4.75;3.50;;;;;3.92;64.50;99280.38;5054696;28;45350;-74
2022/12/11 08:35:31;;;;;;;;;56.25;48.75;;;;;3.99;63.83;99277.19;5056860;28;45332;-73
2022/12/11 08:37:57;;;;;;;;;12.75;11.75;;;;;4.05;63.21;99273.97;5053363;28;45494;-68
2022/12/11 08:40:22;;;;;;;;;15.00;12.75;;;;;4.11;63.50;99279.34;5055572;28;46451;-67
2022/12/11 08:42:48;;;;;;;;;16.75;16.75;;;;;4.17;63.68;99277.84;5055607;28;45523;-75
2022/12/11 08:45:14;;;;;;;;;26.50;23.50;;;;;3.93;64.11;99222.72;5054707;28;45514;-69
2022/12/11 08:47:40;;;;;;;;;37.50;35.25;;;;;4.32;63.54;99266.28;5055639;28;45816;-74
2022/12/11 08:50:06;;;;;;;;;21.00;19.25;;;;;4.42;63.29;99258.03;5051311;28;45638;-67
2022/12/11 08:52:33;;;;;;;;;11.50;11.50;;;;;4.59;62.39;99248.22;5054472;28;45436;-67
2022/12/11 08:54:59;;;;;;;;;17.75;17.50;;;;;4.78;62.37;99257.47;5054260;28;45477;-67
2022/12/11 08:57:24;;;;;;;;;9.25;8.50;;;;;4.93;61.84;99257.06;5056360;28;45420;-67
2022/12/11 08:59:50;;;;;;;;;13.50;13.50;;;;;5.03;61.50;99256.53;5054314;28;45531;-67
2022/12/11 09:02:15;;;;;;;;;12.25;10.50;;;;;5.12;60.77;99261.13;5055977;28;45448;-67
2022/12/11 09:04:41;;;;;;;;;10.25;9.25;;;;;5.21;61.34;99261.41;5056237;28;45443;-71
2022/12/11 09:07:06;;;;;;;;;8.50;7.00;;;;;5.20;60.44;99236.34;5054735;28;45482;-68
2022/12/11 09:09:32;;;;;;;;;10.25;7.00;;;;;5.41;59.94;99246.47;5054329;28;45495;-68
2022/12/11 09:12:00;;;;;;;;;14.50;14.25;;;;;5.63;60.53;99258.34;5051176;28;45495;-68
2022/12/11 09:14:26;;;;;;;;;10.00;9.00;;;;;5.76;59.49;99267.34;5056394;28;45425;-75
2022/12/11 09:16:51;;;;;;;;;11.75;11.50;;;;;5.88;59.75;99264.22;5056181;28;46386;-68
2022/12/11 09:19:17;;;;;;;;;17.75;15.00;;;;;6.02;59.76;99268.09;5054824;28;45643;-67
2022/12/11 09:21:43;;;;;;;;;54.50;38.25;;;;;6.16;59.66;99266.75;5055586;28;46348;-68
2022/12/11 09:24:11;;;;;;;;;32.75;29.25;;;;;6.34;59.90;99262.91;5054767;28;45439;-68
2022/12/11 09:26:37;;;;;;;;;19.50;19.00;;;;;6.51;58.48;99253.84;5054835;28;46164;-73
2022/12/11 09:29:04;;;;;;;;;11.50;11.00;;;;;6.65;58.36;99246.41;5056566;28;45512;-67
2022/12/11 09:31:33;;;;;;;;;25.75;21.75;;;;;6.77;57.18;99254.50;5056000;28;45316;-69
2022/12/11 09:34:03;;;;;;;;;16.50;14.25;;;;;6.89;57.33;99251.31;5055652;28;45469;-68
2022/12/11 09:36:30;;;;;;;;;11.00;10.75;;;;;7.04;56.67;99248.19;5041304;28;46082;-69
2022/12/11 09:39:00;;;;;;;;;15.25;15.00;;;;;6.37;56.38;99104.78;5047127;28;45546;-68
2022/12/11 09:41:26;;;;;;;;;18.00;15.00;;;;;7.33;54.17;99232.41;5054213;28;45669;-68
2022/12/11 09:43:58;;;;;;;;;26.75;21.25;;;;;7.54;55.54;99234.56;5054718;28;45574;-73
2022/12/11 09:46:24;;;;;;;;;43.50;34.75;;;;;7.44;55.08;99188.44;5053695;28;45377;-71
2022/12/11 09:48:52;;;;;;;;;26.75;21.00;;;;;7.82;54.45;99240.31;5050545;28;45362;-75
2022/12/11 09:51:23;;;;;;;;;39.75;33.25;;;;;7.92;53.87;99255.28;5049208;28;45479;-74
2022/12/11 09:53:50;;;;;;;;;18.75;17.00;;;;;7.98;54.62;99258.00;5050212;28;45577;-70
2022/12/11 09:56:21;;;;;;;;;12.50;12.00;;;;;8.03;54.71;99252.88;5054813;28;45492;-69
2022/12/11 09:59:08;;;;;;;;;29.50;27.25;;;;;8.09;54.02;99246.06;5051479;28;45539;-69
2022/12/11 10:02:04;;;;;;;;;9.50;9.00;;;;;8.17;53.40;99251.41;5054014;28;45596;-73
2022/12/11 10:04:53;;;;;;;;;18.00;14.00;;;;;8.29;54.35;99262.03;5045399;28;45596;-74
2022/12/11 10:07:39;;;;;;;;;17.25;15.00;;;;;8.39;53.81;99262.22;5028265;28;45722;-74
2022/12/11 10:10:12;;;;;;;;;44.50;37.75;;;;;8.44;53.52;99263.22;5053102;28;45408;-76
2022/12/11 10:12:41;;;;;;;;;27.25;23.50;;;;;8.45;54.33;99265.84;5055344;28;45430;-74
2022/12/11 10:15:32;;;;;;;;;8.00;8.00;;;;;8.45;54.28;99268.44;5055730;28;45468;-72
2022/12/11 10:17:59;;;;;;;;;14.00;12.00;;;;;8.36;53.94;99250.03;5055500;28;46172;-70
2022/12/11 10:20:33;;;;;;;;;12.00;10.25;;;;;8.47;53.47;99260.66;5055411;28;45676;-68
2022/12/11 10:23:00;;;;;;;;;12.00;11.75;;;;;8.51;52.87;99252.06;5055371;28;45658;-67
2022/12/11 10:25:30;;;;;;;;;22.25;18.00;;;;;8.37;53.31;99217.97;5056273;28;45302;-68
2022/12/11 10:27:56;;;;;;;;;15.00;11.25;;;;;8.59;53.14;99249.59;5055419;28;45467;-74
2022/12/11 10:30:33;;;;;;;;;18.50;15.00;;;;;8.64;53.07;99266.19;5053941;28;45479;-68
2022/12/11 10:33:10;;;;;;;;;8.00;7.00;;;;;8.67;53.62;99258.41;5054698;28;45482;-70
2022/12/11 10:35:48;;;;;;;;;8.75;8.25;;;;;8.70;53.91;99261.06;5055134;28;45497;-68
2022/12/11 10:38:19;;;;;;;;;10.00;9.00;;;;;8.76;53.75;99264.66;5055868;28;45494;-72
2022/12/11 10:40:50;;;;;;;;;6.00;4.00;;;;;8.82;53.77;99257.81;5053719;28;46100;-75
2022/12/11 10:43:15;;;;;;;;;6.00;6.00;;;;;8.63;53.95;99209.75;5052767;28;45460;-67
2022/12/11 10:45:50;;;;;;;;;14.00;13.00;;;;;8.92;53.58;99249.28;5054157;28;45616;-68
2022/12/11 10:48:16;;;;;;;;;15.50;14.50;;;;;8.94;53.38;99234.56;5053021;28;46059;-69
2022/12/11 10:50:53;;;;;;;;;14.25;13.25;;;;;9.05;53.25;99242.50;5055249;28;45574;-75
2022/12/11 10:53:20;;;;;;;;;22.00;18.50;;;;;9.11;52.62;99242.59;5051891;28;45620;-72
2022/12/11 10:55:48;;;;;;;;;3.50;3.25;;;;;9.15;52.51;99239.19;5054591;28;45465;-66
2022/12/11 10:58:22;;;;;;;;;8.50;7.25;;;;;9.16;52.71;99225.31;5054213;28;45648;-67
2022/12/11 11:00:59;;;;;;;;;3.00;2.75;;;;;9.13;52.77;99212.25;5050876;28;46027;-66
2022/12/11 11:03:27;;;;;;;;;9.00;9.00;;;;;9.13;53.17;99213.13;5051715;28;45828;-68
2022/12/11 11:06:16;;;;;;;;;9.50;8.50;;;;;9.13;53.84;99227.88;5055369;28;45594;-72
2022/12/11 11:08:45;;;;;;;;;9.00;7.00;;;;;9.08;53.66;99224.34;5054372;28;46110;-68
2022/12/11 11:11:20;;;;;;;;;10.00;10.00;;;;;9.09;53.54;99213.94;5050442;28;45447;-67
2022/12/11 11:13:45;;;;;;;;;10.00;9.00;;;;;9.09;53.65;99215.66;5042503;28;45391;-69
2022/12/11 11:16:14;;;;;;;;;6.00;4.75;;;;;9.15;53.45;99205.31;5055421;28;45531;-70
2022/12/11 11:18:42;;;;;;;;;10.00;10.00;;;;;9.16;53.47;99213.16;5054630;28;45318;-69
2022/12/11 11:21:16;;;;;;;;;9.50;9.00;;;;;9.18;53.47;99207.97;5053643;28;45447;-75
2022/12/11 11:23:43;;;;;;;;;14.50;13.50;;;;;9.19;53.79;99195.81;5054758;28;45498;-75
2022/12/11 11:26:10;;;;;;;;;7.00;7.00;;;;;9.02;53.45;99166.94;5055366;28;45393;-69
2022/12/11 11:28:41;;;;;;;;;9.25;8.25;;;;;9.18;53.37;99205.38;5053554;28;45436;-75
2022/12/11 11:31:15;;;;;;;;;15.75;15.00;;;;;9.18;53.54;99197.56;5055435;28;45460;-75
2022/12/11 11:33:56;;;;;;;;;10.00;10.00;;;;;9.19;53.45;99195.81;5055528;28;45392;-68
2022/12/11 11:36:28;;;;;;;;;10.25;10.25;;;;;9.21;53.15;99197.63;5051250;28;45468;-68
2022/12/11 11:39:12;;;;;;;;;13.25;13.00;;;;;9.25;53.35;99185.47;5057003;28;45599;-75
2022/12/11 11:42:09;;;;;;;;;19.25;16.75;;;;;9.31;53.24;99182.94;5053067;28;45700;-74
2022/12/11 11:44:41;;;;;;;;;14.00;11.50;;;;;9.38;53.19;99191.75;5055417;28;45480;-68
2022/12/11 11:47:16;;;;;;;;;13.25;11.25;;;;;9.43;53.38;99193.56;5057355;28;45431;-74
2022/12/11 11:50:02;;;;;;;;;9.00;8.50;;;;;9.50;53.72;99192.75;5050157;28;46029;-68
2022/12/11 11:52:39;;;;;;;;;8.75;6.50;;;;;9.55;53.46;99195.44;5051465;28;45518;-68
2022/12/11 11:55:15;;;;;;;;;13.75;12.50;;;;;9.43;53.05;99169.22;5057240;28;45491;-71